Terminal Aerodrome Forecast
Issued by NWS Amarillo, TX

Home | Current Version | Previous Version | Text Only | Print | Product List | Glossary On
Versions: 1 2 3 4 5 6 7 8 9 10 11 12 13 14 15 16 17 18 19 20 21 22 23 24 25
000
FTUS44 KAMA 230500
TAFGUY
TAF
KGUY 230520Z 2306/2406 14010KT P6SM SCT005 OVC009
      TEMPO 2306/2309 4SM BR OVC005
     FM230900 17011KT 5SM -SHRA VCTS SCT006 OVC010CB
      TEMPO 2309/2313 1SM +TSRA BR OVC006CB
     FM231700 16018G28KT P6SM SCT005 OVC020
     FM240100 16016KT P6SM OVC010=

USA.gov is the U.S. government's official web portal to all federal, state and local government web resources and services.